This is the latest recevied weather packets stored in our database for station/object KB2SKP. If no packets are shown the sender has not sent any weather packets the latest 10 day(s).
| Time | Temp. | Humidity | Pressure | Rain* | Wind** | Luminosity | Snow |
|---|---|---|---|---|---|---|---|
| 1777988501 | 18.89° C | 60% | 1010 hPa | 0 mm | - | 411 W/m² | - |
| 1777988197 | 20° C | 60% | 1009.9 hPa | 0 mm | - | 68 W/m² | - |
| 1777987893 | 19.44° C | 61% | 1010.1 hPa | 0 mm | - | 75 W/m² | - |
| 1777987589 | 19.44° C | 62% | 1010.1 hPa | 0 mm | - | 90 W/m² | - |
| 1777987287 | 18.89° C | 62% | 1010.1 hPa | 0 mm | - | 36 W/m² | - |
| 1777986984 | 18.89° C | 62% | 1010.4 hPa | 0 mm | - | 43 W/m² | - |
| 1777986682 | 18.89° C | 61% | 1010.2 hPa | 0 mm | - | 57 W/m² | - |
| 1777986380 | 19.44° C | 61% | 1010 hPa | 0 mm | - | 58 W/m² | - |
| 1777986078 | 19.44° C | 62% | 1010.1 hPa | 0 mm | - | 57 W/m² | - |
| 1777985774 | 18.89° C | 63% | 1010.2 hPa | 0 mm | - | 47 W/m² | - |
| 1777985471 | 18.89° C | 63% | 1010.1 hPa | 0 mm | - | 47 W/m² | - |
| 1777985167 | 18.89° C | 63% | 1010 hPa | 0 mm | - | 34 W/m² | - |
| 1777984864 | 18.33° C | 65% | 1010 hPa | 0 mm | - | 31 W/m² | - |
| 1777984560 | 18.33° C | 66% | 1010 hPa | 0 mm | - | 27 W/m² | - |
| 1777984257 | 17.78° C | 66% | 1010.1 hPa | 0 mm | - | 35 W/m² | - |
| 1777983953 | 17.78° C | 66% | 1009.9 hPa | 0 mm | - | 44 W/m² | - |
| 1777983651 | 17.78° C | 65% | 1010 hPa | 0 mm | - | 25 W/m² | - |
| 1777983347 | 18.33° C | 65% | 1009.9 hPa | 0 mm | - | 27 W/m² | - |
| 1777983044 | 18.33° C | 65% | 1010 hPa | 0 mm | - | 34 W/m² | - |
| 1777982740 | 17.78° C | 66% | 1009.7 hPa | 0 mm | - | 31 W/m² | - |
| 1777982436 | 17.78° C | 66% | 1009.9 hPa | 0 mm | - | 29 W/m² | - |
| 1777982131 | 17.78° C | 67% | 1010 hPa | 0 mm | - | 25 W/m² | - |
| 1777981829 | 17.22° C | 67% | 1009.8 hPa | 0 mm | - | 22 W/m² | - |
| 1777981525 | 17.22° C | 67% | 1009.7 hPa | 0 mm | - | 21 W/m² | - |
| 1777981222 | 17.22° C | 67% | 1009.6 hPa | 0 mm | - | 20 W/m² | - |
* Rain latest hour (hover to see other rain measurements)
** Current wind speed in m/s (hover to see current wind gust speed)